Time;durP1;ratioP1;P1;durP2;ratioP2;P2;SDS_P1;SDS_P2;PMS_P1;PMS_P2;Temp;Humidity;BMP_temperature;BMP_pressure;BME280_temperature;BME280_humidity;BME280_pressure;Samples;Min_cycle;Max_cycle;Signal;HPM_P1;HPM_P2
2022/05/31 00:01:39;;;;;;;2.22;1.33;;;11.30;91.30;;;;;;4996961;28;20034;-71
2022/05/31 00:04:06;;;;;;;1.27;1.17;;;11.40;91.30;;;;;;4995387;28;20080;-71
2022/05/31 00:06:33;;;;;;;1.13;1.00;;;11.40;91.20;;;;;;4993074;28;20058;-71
2022/05/31 00:08:58;;;;;;;1.48;1.20;;;11.40;91.20;;;;;;4993376;28;20081;-72
2022/05/31 00:11:24;;;;;;;2.17;1.10;;;11.40;91.20;;;;;;4988680;28;20841;-72
2022/05/31 00:13:50;;;;;;;1.80;1.23;;;11.40;91.20;;;;;;4985355;28;20053;-71
2022/05/31 00:16:16;;;;;;;1.48;1.25;;;11.40;91.20;;;;;;4985295;28;20497;-72
2022/05/31 00:18:41;;;;;;;1.60;1.30;;;11.50;91.10;;;;;;4993336;28;20037;-72
2022/05/31 00:21:10;;;;;;;1.20;1.08;;;11.50;91.10;;;;;;4992689;28;20174;-72
2022/05/31 00:23:40;;;;;;;1.45;1.10;;;11.40;90.90;;;;;;4995651;28;20022;-71
2022/05/31 00:26:06;;;;;;;1.45;1.20;;;11.40;90.80;;;;;;4994356;28;20041;-72
2022/05/31 00:28:31;;;;;;;1.00;1.00;;;11.40;90.70;;;;;;4986481;28;20037;-72
2022/05/31 00:30:58;;;;;;;0.90;0.80;;;11.40;90.60;;;;;;4987583;28;20022;-72
2022/05/31 00:33:25;;;;;;;1.48;1.20;;;11.30;90.60;;;;;;4981508;28;20041;-72
2022/05/31 00:35:53;;;;;;;1.77;1.20;;;11.30;90.70;;;;;;4994539;28;20056;-72
2022/05/31 00:38:22;;;;;;;1.38;1.27;;;11.30;90.90;;;;;;4991284;28;20033;-72
2022/05/31 00:40:48;;;;;;;1.88;1.10;;;11.30;91.10;;;;;;4977735;28;20037;-72
2022/05/31 00:43:22;;;;;;;3.78;1.05;;;11.30;91.10;;;;;;4983295;28;20032;-72
2022/05/31 00:45:57;;;;;;;2.28;1.30;;;11.30;91.20;;;;;;4993523;28;20035;-72
2022/05/31 00:48:31;;;;;;;1.13;1.05;;;11.30;91.30;;;;;;4991242;28;20029;-72
2022/05/31 00:51:00;;;;;;;3.40;1.20;;;11.30;91.30;;;;;;4995381;28;20034;-72
2022/05/31 00:53:30;;;;;;;2.72;1.40;;;11.30;91.30;;;;;;4995561;28;20046;-72
2022/05/31 00:56:03;;;;;;;1.65;1.10;;;11.40;91.10;;;;;;4990994;28;20061;-72
2022/05/31 00:58:39;;;;;;;1.67;1.40;;;11.30;91.10;;;;;;4985155;28;20775;-72
2022/05/31 01:01:07;;;;;;;;;;;11.30;91.00;;;;;;4995263;28;20077;-72
2022/05/31 01:03:37;;;;;;;2.78;1.15;;;11.30;91.10;;;;;;4996055;28;19914;-72
2022/05/31 01:06:04;;;;;;;1.50;1.40;;;11.20;91.20;;;;;;4995106;28;20045;-72
2022/05/31 01:08:29;;;;;;;1.95;1.30;;;11.20;91.30;;;;;;4976639;28;20029;-72
2022/05/31 01:11:22;;;;;;;1.52;1.08;;;11.20;91.30;;;;;;4942263;28;20935;-71
2022/05/31 01:14:14;;;;;;;2.83;1.20;;;11.10;91.30;;;;;;4971726;28;20046;-72
2022/05/31 01:17:02;;;;;;;1.27;1.17;;;11.10;91.20;;;;;;4990322;28;20129;-72
2022/05/31 01:19:55;;;;;;;2.22;1.20;;;11.10;91.30;;;;;;4992388;28;20038;-72
2022/05/31 01:22:41;;;;;;;1.88;1.60;;;11.00;91.30;;;;;;4984417;28;20497;-71
2022/05/31 01:25:25;;;;;;;2.85;1.67;;;11.00;91.40;;;;;;4969885;28;20536;-72
2022/05/31 01:28:14;;;;;;;1.30;1.10;;;11.00;91.20;;;;;;4975300;28;20492;-72
2022/05/31 01:31:02;;;;;;;1.60;1.05;;;10.90;91.20;;;;;;4984574;28;20498;-72
2022/05/31 01:33:40;;;;;;;1.52;1.10;;;10.80;91.20;;;;;;4996177;28;20037;-72
2022/05/31 01:36:11;;;;;;;1.35;1.10;;;10.70;91.30;;;;;;4996259;28;20035;-72
2022/05/31 01:38:46;;;;;;;1.20;1.10;;;10.70;91.50;;;;;;4995166;28;20845;-72
2022/05/31 01:42:03;;;;;;;1.83;1.05;;;10.60;91.70;;;;;;4999894;28;20034;-72
2022/05/31 01:44:32;;;;;;;2.28;1.33;;;10.50;92.20;;;;;;4947165;28;20042;-72
2022/05/31 01:47:00;;;;;;;4.03;1.20;;;10.40;92.10;;;;;;4972514;28;20030;-72
2022/05/31 01:49:39;;;;;;;1.42;1.23;;;10.40;92.20;;;;;;4988515;28;20139;-72
2022/05/31 01:52:06;;;;;;;1.17;1.08;;;10.30;92.20;;;;;;4985031;28;20743;-72
2022/05/31 01:54:34;;;;;;;1.80;1.10;;;10.30;92.30;;;;;;4996895;28;20542;-72
2022/05/31 01:57:03;;;;;;;2.50;1.70;;;10.30;92.30;;;;;;4979214;28;20042;-72
2022/05/31 01:59:34;;;;;;;1.95;1.10;;;10.20;92.40;;;;;;4995767;28;20045;-72
2022/05/31 02:02:02;;;;;;;2.40;1.20;;;10.20;92.50;;;;;;4981573;28;20033;-72
2022/05/31 02:04:27;;;;;;;1.40;1.08;;;10.10;92.60;;;;;;4988251;28;20026;-71
2022/05/31 02:07:10;;;;;;;1.52;1.05;;;10.10;92.70;;;;;;4989827;28;20041;-72
2022/05/31 02:09:39;;;;;;;2.88;1.15;;;10.00;92.60;;;;;;4975175;28;20030;-72
2022/05/31 02:12:06;;;;;;;2.17;1.20;;;9.90;92.30;;;;;;4982402;28;20064;-72
2022/05/31 02:14:36;;;;;;;1.45;1.13;;;9.90;92.40;;;;;;4982073;28;20030;-72
2022/05/31 02:17:03;;;;;;;1.95;1.20;;;9.80;92.60;;;;;;4978372;28;20490;-72
2022/05/31 02:19:47;;;;;;;1.52;1.13;;;9.70;92.60;;;;;;4982607;28;20573;-71
2022/05/31 02:22:22;;;;;;;2.85;1.08;;;9.60;92.50;;;;;;4987838;28;20029;-72
2022/05/31 02:24:49;;;;;;;1.65;1.27;;;9.50;92.50;;;;;;4993339;28;20108;-72
2022/05/31 02:27:15;;;;;;;1.83;1.25;;;9.40;92.60;;;;;;4995686;28;20570;-72
2022/05/31 02:29:42;;;;;;;3.05;1.20;;;9.40;92.90;;;;;;4995777;28;20026;-72
2022/05/31 02:32:10;;;;;;;4.63;1.27;;;9.30;93.00;;;;;;4973407;28;20490;-71
2022/05/31 02:34:41;;;;;;;1.45;1.00;;;9.30;93.30;;;;;;4989048;28;20516;-72
2022/05/31 02:37:07;;;;;;;0.90;0.90;;;9.30;93.40;;;;;;4976439;28;20048;-72
2022/05/31 02:39:33;;;;;;;2.22;1.35;;;9.30;93.60;;;;;;4993993;28;20029;-72
2022/05/31 02:42:00;;;;;;;2.53;1.52;;;9.30;93.80;;;;;;4979213;28;20037;-72
2022/05/31 02:44:26;;;;;;;2.00;1.60;;;9.40;94.10;;;;;;4975876;28;20031;-72
2022/05/31 02:46:53;;;;;;;1.42;1.33;;;9.40;94.40;;;;;;4978137;28;20085;-71
2022/05/31 02:49:19;;;;;;;1.48;1.33;;;9.50;94.80;;;;;;4982144;28;20490;-71
2022/05/31 02:51:46;;;;;;;2.08;1.52;;;9.60;94.50;;;;;;4994763;28;20037;-72
2022/05/31 02:54:14;;;;;;;4.45;1.80;;;9.60;94.30;;;;;;4981512;28;20030;-72
2022/05/31 02:57:03;;;;;;;1.50;1.38;;;9.70;94.20;;;;;;4970111;28;20037;-72
2022/05/31 03:00:05;;;;;;;2.35;1.38;;;9.70;94.00;;;;;;4994382;28;20070;-72
2022/05/31 03:02:49;;;;;;;5.15;1.60;;;9.80;93.90;;;;;;4997347;28;20533;-72
2022/05/31 03:05:15;;;;;;;1.88;1.45;;;9.70;93.50;;;;;;4987182;28;20069;-71
2022/05/31 03:07:59;;;;;;;1.98;1.40;;;9.70;93.30;;;;;;4984983;28;20076;-75
2022/05/31 03:10:33;;;;;;;3.55;1.50;;;9.60;93.30;;;;;;4982253;28;20476;-75
2022/05/31 03:12:59;;;;;;;2.47;1.27;;;9.60;93.30;;;;;;4979255;28;20088;-75
2022/05/31 03:15:26;;;;;;;1.95;1.25;;;9.60;93.10;;;;;;4981407;28;20120;-75
2022/05/31 03:18:01;;;;;;;4.88;1.40;;;9.50;93.10;;;;;;4993652;28;20026;-74
2022/05/31 03:20:34;;;;;;;1.83;1.30;;;9.50;93.20;;;;;;4980242;28;20033;-75
2022/05/31 03:23:21;;;;;;;3.30;1.30;;;9.60;93.40;;;;;;4990204;28;20034;-74
2022/05/31 03:25:48;;;;;;;2.92;1.60;;;9.60;93.50;;;;;;4981959;28;20029;-75
2022/05/31 03:28:16;;;;;;;1.88;1.50;;;9.60;93.50;;;;;;4992476;28;20057;-74
2022/05/31 03:30:42;;;;;;;2.05;1.40;;;9.70;93.60;;;;;;4996775;28;20038;-75
2022/05/31 03:33:09;;;;;;;2.63;1.38;;;9.70;93.80;;;;;;4996610;28;20041;-75
2022/05/31 03:35:36;;;;;;;1.83;1.42;;;9.80;93.60;;;;;;4972736;28;20133;-75
2022/05/31 03:38:09;;;;;;;1.45;1.35;;;9.80;93.60;;;;;;4974911;28;20771;-74
2022/05/31 03:40:56;;;;;;;1.75;1.30;;;9.90;93.60;;;;;;4975224;28;20137;-75
2022/05/31 03:43:27;;;;;;;2.05;1.55;;;9.90;93.60;;;;;;4982732;28;20093;-75
2022/05/31 03:46:16;;;;;;;3.35;1.83;;;10.00;93.50;;;;;;5000610;28;20049;-75
2022/05/31 03:48:58;;;;;;;2.15;1.40;;;10.00;93.40;;;;;;4981382;28;20026;-74
2022/05/31 03:51:24;;;;;;;2.22;1.40;;;10.00;93.40;;;;;;4975958;28;20038;-75
2022/05/31 03:53:53;;;;;;;2.75;1.50;;;10.10;93.50;;;;;;4978765;28;20026;-75
2022/05/31 03:56:30;;;;;;;2.78;1.77;;;10.10;93.50;;;;;;4975661;28;20466;-75
2022/05/31 03:58:56;;;;;;;2.40;1.60;;;10.20;93.50;;;;;;4979233;28;20045;-74
2022/05/31 04:01:25;;;;;;;2.50;1.75;;;10.30;93.60;;;;;;4974616;28;20042;-75
2022/05/31 04:03:51;;;;;;;3.05;1.92;;;10.30;93.60;;;;;;4981762;28;20034;-75
2022/05/31 04:06:16;;;;;;;2.13;1.52;;;10.30;93.60;;;;;;4979879;28;20049;-75
2022/05/31 04:08:42;;;;;;;1.88;1.77;;;10.40;93.70;;;;;;4979521;28;20029;-74
2022/05/31 04:11:09;;;;;;;3.38;2.30;;;10.50;93.70;;;;;;4970911;28;20084;-75
2022/05/31 04:13:35;;;;;;;2.58;1.90;;;10.50;93.60;;;;;;4979611;28;20034;-75
2022/05/31 04:16:35;;;;;;;3.60;1.92;;;10.60;93.50;;;;;;4977573;28;20406;-75
2022/05/31 04:19:03;;;;;;;4.15;1.63;;;10.70;93.30;;;;;;4985295;28;20034;-75
2022/05/31 04:21:30;;;;;;;1.98;1.88;;;10.80;93.30;;;;;;4999561;28;20453;-75
2022/05/31 04:23:59;;;;;;;3.05;1.80;;;10.80;93.20;;;;;;4983890;28;20014;-75
2022/05/31 04:26:43;;;;;;;3.72;2.03;;;10.90;93.10;;;;;;4992809;28;20133;-74
2022/05/31 04:29:27;;;;;;;3.65;1.67;;;10.90;93.00;;;;;;4996906;28;20520;-75
2022/05/31 04:32:19;;;;;;;2.65;1.67;;;11.00;92.70;;;;;;4995620;28;20034;-75
2022/05/31 04:34:45;;;;;;;4.63;2.17;;;11.00;92.60;;;;;;4999170;28;20493;-75
2022/05/31 04:37:12;;;;;;;2.38;2.03;;;11.00;92.50;;;;;;5000942;28;20029;-74
2022/05/31 04:39:57;;;;;;;2.20;1.75;;;11.10;92.30;;;;;;4997550;28;20084;-75
2022/05/31 04:42:37;;;;;;;4.47;1.75;;;11.10;92.20;;;;;;4985030;28;20040;-75
2022/05/31 04:45:06;;;;;;;3.42;1.80;;;11.30;92.10;;;;;;4977008;28;20107;-75
2022/05/31 04:47:32;;;;;;;2.22;1.55;;;11.30;92.00;;;;;;4978931;28;20033;-75
2022/05/31 04:49:59;;;;;;;2.75;1.70;;;11.40;91.90;;;;;;4985229;28;20867;-75
2022/05/31 04:52:26;;;;;;;1.30;1.20;;;11.50;91.80;;;;;;4983483;28;20044;-75
2022/05/31 04:54:54;;;;;;;2.47;1.63;;;11.60;91.80;;;;;;4983079;28;20057;-75
2022/05/31 04:57:28;;;;;;;3.42;1.80;;;11.60;91.70;;;;;;4975736;28;20044;-75
2022/05/31 04:59:54;;;;;;;1.85;1.67;;;11.70;91.60;;;;;;4983371;28;20033;-74
2022/05/31 05:02:20;;;;;;;1.80;1.60;;;11.70;91.60;;;;;;4984606;28;20497;-75
2022/05/31 05:04:50;;;;;;;3.50;1.67;;;11.80;91.50;;;;;;4975540;28;20031;-75
2022/05/31 05:07:46;;;;;;;2.60;1.63;;;11.90;91.50;;;;;;4978050;28;20050;-75
2022/05/31 05:10:12;;;;;;;1.83;1.67;;;12.00;91.30;;;;;;4983742;28;20033;-75
2022/05/31 05:13:10;;;;;;;1.73;1.30;;;12.00;91.20;;;;;;4975618;28;20449;-75
2022/05/31 05:16:00;;;;;;;2.13;1.52;;;12.20;91.20;;;;;;4978328;28;20562;-75
2022/05/31 05:18:30;;;;;;;2.67;1.40;;;12.30;91.00;;;;;;4976815;28;20506;-75
2022/05/31 05:20:56;;;;;;;1.55;1.23;;;12.50;90.50;;;;;;4984694;28;20386;-75
2022/05/31 05:23:22;;;;;;;1.52;1.42;;;12.70;90.10;;;;;;4984809;28;20030;-75
2022/05/31 05:25:49;;;;;;;1.88;1.30;;;12.90;89.60;;;;;;4980752;28;20038;-75
2022/05/31 05:31:22;;;;;;;5.13;1.65;;;13.80;86.80;;;;;;4995112;28;20048;-75
2022/05/31 05:34:06;;;;;;;1.85;1.20;;;13.90;82.50;;;;;;4996387;28;20041;-75
2022/05/31 05:36:53;;;;;;;3.80;1.90;;;13.80;82.20;;;;;;4984875;28;20026;-74
2022/05/31 05:39:19;;;;;;;4.82;1.67;;;13.80;81.30;;;;;;4980952;28;20529;-75
2022/05/31 05:42:04;;;;;;;4.55;1.50;;;13.70;81.00;;;;;;5001326;28;20112;-75
2022/05/31 05:44:32;;;;;;;5.47;1.63;;;13.70;81.20;;;;;;4994197;28;20034;-75
2022/05/31 05:47:05;;;;;;;3.25;2.05;;;13.80;80.70;;;;;;4982515;28;20036;-75
2022/05/31 05:49:30;;;;;;;4.45;1.50;;;14.00;80.60;;;;;;4991058;28;20023;-76
2022/05/31 05:52:00;;;;;;;2.38;1.27;;;14.10;78.90;;;;;;4979931;28;20030;-75
2022/05/31 05:54:44;;;;;;;2.30;1.20;;;14.40;77.90;;;;;;4990388;28;20568;-75
2022/05/31 05:57:29;;;;;;;1.33;0.90;;;14.60;76.80;;;;;;4995033;28;20041;-75
2022/05/31 06:00:13;;;;;;;1.40;1.10;;;14.60;75.40;;;;;;4990938;28;20446;-75
2022/05/31 06:03:10;;;;;;;1.77;0.80;;;14.60;75.40;;;;;;4992878;28;20048;-75
2022/05/31 06:05:48;;;;;;;1.25;0.70;;;14.70;75.20;;;;;;4982545;28;20038;-75
2022/05/31 06:08:20;;;;;;;1.25;0.90;;;14.80;74.40;;;;;;4983613;28;20817;-75
2022/05/31 06:11:04;;;;;;;2.75;0.90;;;14.80;73.90;;;;;;4993804;28;20034;-75
2022/05/31 06:13:35;;;;;;;1.58;1.02;;;15.00;72.50;;;;;;4975070;28;20026;-75
2022/05/31 06:16:02;;;;;;;1.83;0.77;;;15.70;69.80;;;;;;4982040;28;20041;-75
2022/05/31 06:18:32;;;;;;;2.95;1.08;;;15.80;67.60;;;;;;4982459;28;20034;-75
2022/05/31 06:21:05;;;;;;;6.35;1.48;;;15.60;68.30;;;;;;4983666;28;20056;-75
2022/05/31 06:23:36;;;;;;;8.20;1.67;;;15.60;68.80;;;;;;4975576;28;20133;-75
2022/05/31 06:26:02;;;;;;;6.63;1.40;;;15.60;68.80;;;;;;4974909;28;20030;-75
2022/05/31 06:28:34;;;;;;;4.32;1.60;;;15.60;67.10;;;;;;4993065;28;20035;-75
2022/05/31 06:30:59;;;;;;;9.40;1.98;;;15.50;66.60;;;;;;4970591;28;20030;-75
2022/05/31 06:33:25;;;;;;;8.35;2.00;;;15.40;65.60;;;;;;4967017;28;20038;-75
2022/05/31 06:35:53;;;;;;;5.45;1.65;;;15.40;65.40;;;;;;4972504;28;20121;-75
2022/05/31 06:38:19;;;;;;;2.65;1.25;;;15.30;65.30;;;;;;4975935;28;20088;-75
2022/05/31 06:40:46;;;;;;;2.20;0.90;;;15.40;65.50;;;;;;4979944;28;20154;-75
2022/05/31 06:43:32;;;;;;;3.58;1.02;;;15.60;64.10;;;;;;4965146;28;20518;-74
2022/05/31 06:46:18;;;;;;;4.60;1.20;;;15.60;63.30;;;;;;4984799;28;20040;-75
2022/05/31 06:49:02;;;;;;;3.40;0.82;;;15.60;63.90;;;;;;4994820;28;20119;-75
2022/05/31 06:58:10;;;;;;;3.83;0.90;;;16.30;61.30;;;;;;4971195;28;20045;-75
2022/05/31 07:00:42;;;;;;;2.58;1.02;;;16.20;59.50;;;;;;4969745;28;20026;-75
2022/05/31 07:03:07;;;;;;;2.03;0.60;;;16.20;59.70;;;;;;4965469;28;20034;-75
2022/05/31 07:05:38;;;;;;;4.00;0.95;;;16.20;60.40;;;;;;4982953;28;20083;-75
2022/05/31 07:08:06;;;;;;;7.28;1.08;;;16.40;60.70;;;;;;4980229;28;20741;-74
2022/05/31 07:10:50;;;;;;;1.85;0.90;;;16.40;59.30;;;;;;4996129;28;20088;-74
2022/05/31 07:13:17;;;;;;;3.20;1.13;;;16.40;59.50;;;;;;4997843;28;20048;-74
2022/05/31 07:16:08;;;;;;;2.72;1.00;;;16.50;60.20;;;;;;4990160;28;20034;-74
2022/05/31 07:19:12;;;;;;;5.53;0.95;;;16.70;60.50;;;;;;4924458;28;20048;-74
2022/05/31 07:21:42;;;;;;;2.60;0.77;;;16.90;59.40;;;;;;4915751;29;20654;-74
2022/05/31 07:24:08;;;;;;;6.38;1.30;;;17.20;58.60;;;;;;4956156;28;20213;-72
2022/05/31 07:26:38;;;;;;;3.15;0.90;;;17.50;57.50;;;;;;4981696;28;20080;-71
2022/05/31 07:29:06;;;;;;;3.67;0.82;;;17.60;56.60;;;;;;4980797;28;20117;-73
2022/05/31 07:31:34;;;;;;;4.45;1.17;;;17.50;56.70;;;;;;4972796;28;20577;-74
2022/05/31 07:34:06;;;;;;;2.80;1.00;;;17.70;57.00;;;;;;4979945;28;20038;-74
2022/05/31 07:36:32;;;;;;;2.53;1.05;;;17.90;56.50;;;;;;4999383;28;20058;-74
2022/05/31 07:39:09;;;;;;;3.28;0.88;;;18.10;56.40;;;;;;4978536;28;20104;-74
2022/05/31 07:41:36;;;;;;;1.92;0.98;;;18.30;55.40;;;;;;4982774;28;20136;-74
2022/05/31 07:44:03;;;;;;;4.07;0.98;;;18.30;55.10;;;;;;4995760;28;20508;-72
2022/05/31 07:46:29;;;;;;;2.72;1.00;;;18.10;55.30;;;;;;4979797;28;20053;-75
2022/05/31 07:48:58;;;;;;;2.78;0.90;;;17.90;56.20;;;;;;4970192;28;20026;-75
2022/05/31 07:51:42;;;;;;;5.55;0.75;;;17.60;56.30;;;;;;4990543;28;20049;-71
2022/05/31 07:54:30;;;;;;;2.38;0.85;;;17.60;57.00;;;;;;4996470;28;20470;-74
2022/05/31 08:00:25;;;;;;;5.28;1.20;;;17.60;56.50;;;;;;4990748;28;20090;-75
2022/05/31 08:02:54;;;;;;;2.35;1.10;;;17.50;57.10;;;;;;4975593;28;20048;-74
2022/05/31 08:05:20;;;;;;;3.60;1.10;;;17.50;57.30;;;;;;4986331;28;20022;-74
2022/05/31 08:07:45;;;;;;;2.40;1.23;;;17.50;57.70;;;;;;4983988;28;20018;-75
2022/05/31 08:10:13;;;;;;;3.05;1.08;;;17.60;58.10;;;;;;4990296;28;20030;-74
2022/05/31 08:12:39;;;;;;;3.80;1.30;;;17.70;56.50;;;;;;4995599;28;20033;-74
2022/05/31 08:15:05;;;;;;;5.28;1.40;;;17.90;57.30;;;;;;4993634;28;20410;-75
2022/05/31 08:17:31;;;;;;;7.30;1.58;;;17.80;56.70;;;;;;4996289;28;20055;-74
2022/05/31 08:19:57;;;;;;;3.15;1.00;;;17.70;57.40;;;;;;4989213;28;20732;-75
2022/05/31 08:22:23;;;;;;;2.30;0.90;;;17.70;55.20;;;;;;4983677;28;20061;-73
2022/05/31 08:24:49;;;;;;;4.10;1.30;;;17.80;56.00;;;;;;4989079;28;20050;-73
2022/05/31 08:27:15;;;;;;;4.15;1.10;;;18.00;55.80;;;;;;4981160;28;20383;-75
2022/05/31 08:29:42;;;;;;;2.28;1.15;;;18.00;53.40;;;;;;4994926;28;20025;-74
2022/05/31 08:32:08;;;;;;;2.55;0.70;;;18.10;53.40;;;;;;4996568;28;20479;-74
2022/05/31 08:34:34;;;;;;;2.33;1.10;;;18.20;52.50;;;;;;4997660;28;20556;-74
2022/05/31 08:37:00;;;;;;;3.15;1.13;;;18.40;51.10;;;;;;4993060;28;20022;-74
2022/05/31 08:39:26;;;;;;;2.08;0.88;;;18.50;51.90;;;;;;4989140;28;20046;-73
2022/05/31 08:42:05;;;;;;;6.20;1.50;;;18.60;51.60;;;;;;4990677;28;20018;-74
2022/05/31 08:45:20;;;;;;;3.85;1.20;;;18.90;52.40;;;;;;4994419;28;20035;-74
2022/05/31 08:47:57;;;;;;;2.42;1.30;;;19.30;51.00;;;;;;4976676;28;20034;-74
2022/05/31 08:53:26;;;;;;;3.17;1.13;;;20.10;49.10;;;;;;4983261;28;20046;-74
2022/05/31 08:59:03;;;;;;;4.90;1.27;;;20.50;48.30;;;;;;4970019;28;20026;-74
2022/05/31 09:01:34;;;;;;;2.13;0.80;;;20.50;48.00;;;;;;4990322;28;20686;-75
2022/05/31 09:04:11;;;;;;;2.78;0.93;;;20.20;47.70;;;;;;4988095;28;20044;-74
2022/05/31 09:06:46;;;;;;;2.70;0.80;;;20.10;48.90;;;;;;4991075;28;20033;-74
2022/05/31 09:09:18;;;;;;;4.40;1.10;;;20.20;46.80;;;;;;4996056;28;20030;-74
2022/05/31 09:12:05;;;;;;;2.28;0.90;;;20.50;47.00;;;;;;4989081;28;20489;-74
2022/05/31 09:14:40;;;;;;;2.40;1.35;;;20.50;46.90;;;;;;4991939;28;20821;-74
2022/05/31 09:17:23;;;;;;;2.88;0.95;;;20.20;47.20;;;;;;4994686;28;20057;-74
2022/05/31 09:20:05;;;;;;;2.67;0.82;;;20.00;48.00;;;;;;4990339;28;20180;-74
2022/05/31 09:22:32;;;;;;;3.25;1.10;;;20.00;48.50;;;;;;4979153;28;20031;-74
2022/05/31 09:24:57;;;;;;;1.98;1.02;;;20.30;48.30;;;;;;4990010;28;20042;-74
2022/05/31 09:27:41;;;;;;;1.92;1.17;;;20.50;47.80;;;;;;4992461;28;20027;-74
2022/05/31 09:30:28;;;;;;;1.95;1.00;;;20.80;47.30;;;;;;4992261;28;20042;-74
2022/05/31 09:33:07;;;;;;;3.42;1.10;;;21.20;46.70;;;;;;4994785;28;20127;-74
2022/05/31 09:35:45;;;;;;;3.60;1.08;;;21.30;45.40;;;;;;4980983;28;20503;-74
2022/05/31 09:38:25;;;;;;;2.65;1.13;;;21.30;45.60;;;;;;4997668;28;20025;-75
2022/05/31 09:41:08;;;;;;;4.40;1.10;;;21.20;45.40;;;;;;4998183;28;20046;-74
2022/05/31 09:43:53;;;;;;;3.95;1.25;;;21.10;46.90;;;;;;4998416;28;20042;-74
2022/05/31 09:46:44;;;;;;;3.10;0.90;;;21.10;45.60;;;;;;4993102;28;20236;-74
2022/05/31 09:49:39;;;;;;;2.33;1.02;;;21.30;45.70;;;;;;4995985;28;20281;-75
2022/05/31 09:52:30;;;;;;;3.53;0.88;;;21.60;45.40;;;;;;4992489;28;20046;-74
2022/05/31 09:58:09;;;;;;;4.22;1.10;;;22.20;42.80;;;;;;4986022;28;20037;-74
2022/05/31 10:01:07;;;;;;;2.55;1.05;;;21.80;43.20;;;;;;4995431;28;20034;-75
2022/05/31 10:03:39;;;;;;;1.98;0.93;;;21.30;44.00;;;;;;4980736;28;20479;-75
2022/05/31 10:06:18;;;;;;;3.58;1.10;;;21.30;44.70;;;;;;4970830;28;20771;-75
2022/05/31 10:08:52;;;;;;;4.72;1.10;;;21.60;44.90;;;;;;4995872;28;20037;-75
2022/05/31 10:11:37;;;;;;;2.03;1.38;;;21.90;44.10;;;;;;4989449;28;20044;-75
2022/05/31 10:14:26;;;;;;;1.85;0.90;;;22.00;43.00;;;;;;4991906;28;20053;-74
2022/05/31 10:16:54;;;;;;;2.63;1.00;;;22.00;42.40;;;;;;4995048;28;20041;-74
2022/05/31 10:19:26;;;;;;;3.28;1.08;;;21.60;42.70;;;;;;4995602;28;20084;-74
2022/05/31 10:21:52;;;;;;;1.45;1.00;;;21.50;42.40;;;;;;4993618;28;20057;-74
2022/05/31 10:24:36;;;;;;;4.25;1.00;;;21.80;43.10;;;;;;4995186;28;20728;-74
2022/05/31 10:27:21;;;;;;;3.75;0.90;;;21.80;41.80;;;;;;4996788;28;20568;-75
2022/05/31 10:30:07;;;;;;;2.50;1.00;;;21.90;42.30;;;;;;4981568;28;20026;-74
2022/05/31 10:33:04;;;;;;;2.83;0.77;;;22.00;42.70;;;;;;4989067;28;20049;-74
2022/05/31 10:35:39;;;;;;;2.67;1.00;;;21.90;42.60;;;;;;4994207;28;20039;-75
2022/05/31 10:38:18;;;;;;;4.32;0.90;;;21.70;43.30;;;;;;4996508;28;20133;-74
2022/05/31 10:41:00;;;;;;;2.55;1.10;;;21.50;42.90;;;;;;4995444;28;20442;-74
2022/05/31 10:43:50;;;;;;;2.50;1.00;;;21.80;41.70;;;;;;4988780;28;20032;-74
2022/05/31 10:46:31;;;;;;;2.13;1.10;;;22.30;40.80;;;;;;4989695;28;20037;-74
2022/05/31 10:49:01;;;;;;;2.88;0.85;;;22.60;41.00;;;;;;4989041;28;20057;-74
2022/05/31 10:52:04;;;;;;;2.60;1.10;;;22.80;40.50;;;;;;4994685;28;20045;-74
2022/05/31 10:54:48;;;;;;;1.52;1.00;;;22.60;40.60;;;;;;4990897;28;20026;-73
2022/05/31 10:57:23;;;;;;;1.27;0.70;;;22.20;41.40;;;;;;4976930;28;20038;-75
2022/05/31 11:00:12;;;;;;;;;;;21.90;42.40;;;;;;4985528;28;22108;-75
2022/05/31 11:03:29;;;;;;;2.17;1.10;;;21.70;43.00;;;;;;4987070;28;19920;-74
2022/05/31 11:06:25;;;;;;;1.77;1.10;;;21.90;41.80;;;;;;4963333;28;20523;-74
2022/05/31 11:11:40;;;;;;;;;;;21.60;41.90;;;;;;4980610;28;20943;-75
2022/05/31 11:14:08;;;;;;;2.33;1.13;;;21.40;41.50;;;;;;4988881;28;19949;-75
2022/05/31 11:17:30;;;;;;;1.63;1.00;;;21.30;42.70;;;;;;4989243;28;20109;-74
2022/05/31 11:20:09;;;;;;;1.73;0.70;;;21.20;42.00;;;;;;4937246;28;20043;-74
2022/05/31 11:22:56;;;;;;;4.55;1.00;;;21.30;43.30;;;;;;4986391;28;20068;-74
2022/05/31 11:25:30;;;;;;;4.20;1.20;;;21.20;42.00;;;;;;4989290;28;20545;-74
2022/05/31 11:28:08;;;;;;;2.38;0.95;;;21.20;41.80;;;;;;4997751;28;20076;-74
2022/05/31 11:30:51;;;;;;;2.53;1.02;;;21.40;41.90;;;;;;4989414;28;20038;-74
2022/05/31 11:33:38;;;;;;;2.35;0.95;;;21.50;42.00;;;;;;4986067;28;20045;-74
2022/05/31 11:36:18;;;;;;;2.72;0.80;;;21.60;41.60;;;;;;4989186;28;20434;-74
2022/05/31 11:39:03;;;;;;;0.90;0.90;;;21.60;42.70;;;;;;4990730;28;20831;-75
2022/05/31 11:41:47;;;;;;;1.33;0.90;;;21.70;41.80;;;;;;4991272;28;20073;-74
2022/05/31 11:44:58;;;;;;;2.13;0.98;;;21.80;41.00;;;;;;4994426;28;20040;-74
2022/05/31 11:47:37;;;;;;;2.10;1.33;;;21.80;41.10;;;;;;4959824;28;20058;-74
2022/05/31 11:50:22;;;;;;;1.30;1.00;;;21.80;41.00;;;;;;4992045;28;20045;-75
2022/05/31 11:52:53;;;;;;;3.17;1.00;;;22.00;41.40;;;;;;4993051;28;20732;-75
2022/05/31 11:55:57;;;;;;;1.35;0.80;;;21.80;41.50;;;;;;4980391;28;20033;-74
2022/05/31 11:58:44;;;;;;;2.05;0.90;;;21.70;41.30;;;;;;4985345;28;20038;-74
2022/05/31 12:01:19;;;;;;;3.70;1.33;;;21.80;42.00;;;;;;4996482;28;20393;-74
2022/05/31 12:04:11;;;;;;;2.88;1.13;;;21.80;42.20;;;;;;4991648;28;20042;-75
2022/05/31 12:07:04;;;;;;;1.83;0.65;;;21.90;42.00;;;;;;4991865;28;20040;-75
2022/05/31 12:09:44;;;;;;;2.65;0.90;;;22.00;41.30;;;;;;4991073;28;20037;-75
2022/05/31 12:12:18;;;;;;;1.77;0.90;;;22.40;40.80;;;;;;4988776;28;20035;-74
2022/05/31 12:14:54;;;;;;;2.35;0.88;;;22.60;40.00;;;;;;4984683;28;20809;-75
2022/05/31 12:17:31;;;;;;;1.20;1.00;;;22.30;39.30;;;;;;4992644;28;20045;-75
2022/05/31 12:20:29;;;;;;;2.63;0.90;;;22.10;40.80;;;;;;4992447;28;20046;-74
2022/05/31 12:23:37;;;;;;;2.92;1.10;;;22.00;41.40;;;;;;4990315;28;20030;-75
2022/05/31 12:26:14;;;;;;;1.92;0.90;;;22.10;40.80;;;;;;4985184;28;20049;-74
2022/05/31 12:29:09;;;;;;;1.25;0.77;;;22.10;40.10;;;;;;4988757;28;20035;-75
2022/05/31 12:31:38;;;;;;;1.10;0.73;;;22.00;39.00;;;;;;4985202;28;20057;-75
2022/05/31 12:34:33;;;;;;;4.90;1.00;;;22.00;40.80;;;;;;4992334;28;20069;-75
2022/05/31 12:37:01;;;;;;;0.98;0.77;;;22.20;40.90;;;;;;4977737;28;20037;-74
2022/05/31 12:39:30;;;;;;;1.58;0.90;;;22.40;40.30;;;;;;4992028;28;20717;-74
2022/05/31 12:41:58;;;;;;;0.93;0.85;;;22.40;40.80;;;;;;4997630;28;20089;-74
2022/05/31 12:44:35;;;;;;;3.33;1.10;;;22.50;41.70;;;;;;4994962;28;20026;-74
2022/05/31 12:47:30;;;;;;;5.18;0.70;;;22.20;40.00;;;;;;4993709;28;20057;-74
2022/05/31 12:50:04;;;;;;;1.48;0.90;;;22.00;41.00;;;;;;4983216;28;20141;-71
2022/05/31 12:53:20;;;;;;;4.00;1.35;;;22.00;40.60;;;;;;4989875;28;20093;-71
2022/05/31 12:55:46;;;;;;;3.30;1.02;;;22.20;41.30;;;;;;4994156;28;20038;-72
2022/05/31 12:58:29;;;;;;;0.88;0.70;;;22.10;41.30;;;;;;4994359;28;20038;-71
2022/05/31 13:01:11;;;;;;;1.80;0.90;;;22.00;41.60;;;;;;4979438;28;20785;-72
2022/05/31 13:03:43;;;;;;;2.60;1.00;;;21.90;43.40;;;;;;4994832;28;20150;-71
2022/05/31 13:06:35;;;;;;;4.28;0.90;;;21.70;43.70;;;;;;4991655;28;20074;-71
2022/05/31 13:09:04;;;;;;;1.17;0.77;;;21.60;42.50;;;;;;4990525;28;20541;-72
2022/05/31 13:20:04;;;;;;;1.38;0.60;;;21.20;42.90;;;;;;4999555;28;20124;-71
2022/05/31 13:22:37;;;;;;;1.00;0.90;;;21.20;43.50;;;;;;4990414;28;20030;-72
2022/05/31 13:25:16;;;;;;;1.75;0.85;;;21.20;44.00;;;;;;4993537;28;20038;-71
2022/05/31 13:27:41;;;;;;;2.67;0.70;;;21.20;44.60;;;;;;4993418;28;20497;-72
2022/05/31 13:30:14;;;;;;;2.28;1.00;;;21.30;43.80;;;;;;4995418;28;20084;-72
2022/05/31 13:32:40;;;;;;;2.00;0.88;;;21.40;43.50;;;;;;4990467;28;20133;-71
2022/05/31 13:35:10;;;;;;;2.10;0.90;;;21.50;43.60;;;;;;4989791;28;20069;-71
2022/05/31 13:38:02;;;;;;;2.85;0.88;;;21.50;44.00;;;;;;4991786;28;20057;-72
2022/05/31 13:40:38;;;;;;;1.73;0.80;;;21.40;44.60;;;;;;4996389;28;20143;-71
2022/05/31 13:43:21;;;;;;;1.92;1.15;;;21.20;45.90;;;;;;4992127;28;20131;-72
2022/05/31 13:45:50;;;;;;;1.20;0.63;;;21.00;46.10;;;;;;4996036;28;20057;-71
2022/05/31 13:48:21;;;;;;;3.00;0.95;;;20.80;46.10;;;;;;4980895;28;20034;-71
2022/05/31 13:51:12;;;;;;;1.02;0.90;;;20.60;47.60;;;;;;4988198;28;20069;-72
2022/05/31 13:53:43;;;;;;;0.90;0.90;;;20.40;49.50;;;;;;4988348;28;20042;-71
2022/05/31 13:56:17;;;;;;;1.83;1.27;;;20.20;53.10;;;;;;4996014;28;20034;-71
2022/05/31 13:58:44;;;;;;;1.00;0.90;;;20.00;55.40;;;;;;4991325;28;20041;-71
2022/05/31 14:01:23;;;;;;;1.73;1.05;;;19.90;56.30;;;;;;4995300;28;20391;-71
2022/05/31 14:03:50;;;;;;;0.90;0.88;;;19.70;57.00;;;;;;4989930;28;20034;-71
2022/05/31 14:06:18;;;;;;;1.25;0.90;;;19.70;56.90;;;;;;4991954;28;20061;-71